createdAt,value
2017-08-02T00:01:01.775Z,79.80
2017-08-02T00:04:05.170Z,81.00
2017-08-02T00:07:08.669Z,79.60
2017-08-02T00:10:11.299Z,79.60
2017-08-02T00:13:13.941Z,79.90
2017-08-02T00:16:16.727Z,80.70
2017-08-02T00:19:19.353Z,80.10
2017-08-02T00:22:22.084Z,81.00
2017-08-02T00:25:24.703Z,83.10
2017-08-02T00:28:27.539Z,82.00
2017-08-02T00:31:30.934Z,82.80
2017-08-02T00:34:33.718Z,82.80
2017-08-02T00:37:37.108Z,82.60
2017-08-02T00:40:40.657Z,81.80
2017-08-02T00:43:43.291Z,81.60
2017-08-02T00:46:46.795Z,82.40
2017-08-02T00:49:50.209Z,82.40
2017-08-02T00:52:52.978Z,82.40
2017-08-02T00:55:55.638Z,81.20
2017-08-02T00:58:58.459Z,80.80
2017-08-02T01:02:01.089Z,81.30
2017-08-02T01:05:03.806Z,81.40
2017-08-02T01:08:07.206Z,81.10
2017-08-02T01:11:10.703Z,80.30
2017-08-02T01:14:13.335Z,80.20
2017-08-02T01:17:15.955Z,80.60
2017-08-02T01:20:19.454Z,80.60
2017-08-02T01:23:22.141Z,80.70
2017-08-02T01:26:24.933Z,80.80
2017-08-02T01:29:27.562Z,81.40
2017-08-02T01:32:30.299Z,81.50
2017-08-02T01:35:32.934Z,81.80
2017-08-02T01:38:35.642Z,82.70
2017-08-02T01:41:38.267Z,83.40
2017-08-02T01:44:41.007Z,83.10
2017-08-02T01:47:44.398Z,83.20
2017-08-02T01:50:47.901Z,83.40
2017-08-02T01:53:51.312Z,82.50
2017-08-02T01:56:54.806Z,82.60
2017-08-02T01:59:58.202Z,82.60
2017-08-02T02:03:01.719Z,83.10
2017-08-02T02:06:04.366Z,83.10
2017-08-02T02:09:07.694Z,83.00
2017-08-02T02:12:10.298Z,82.20
2017-08-02T02:15:13.044Z,82.00
2017-08-02T02:18:15.675Z,81.90
2017-08-02T02:21:18.411Z,81.30
2017-08-02T02:24:21.383Z,81.70
2017-08-02T02:27:24.084Z,82.00
2017-08-02T02:30:26.861Z,82.80
2017-08-02T02:33:29.487Z,81.90
2017-08-02T02:36:32.226Z,81.60
2017-08-02T02:39:34.855Z,81.20
2017-08-02T02:42:37.595Z,80.10
2017-08-02T02:45:40.252Z,80.60
2017-08-02T02:48:43.758Z,80.90
2017-08-02T02:51:46.393Z,80.80
2017-08-02T02:54:49.143Z,81.10
2017-08-02T02:57:51.779Z,79.50
2017-08-02T03:00:54.478Z,81.30
2017-08-02T03:03:57.859Z,82.80
2017-08-02T03:07:00.459Z,82.70
2017-08-02T03:10:03.868Z,82.20
2017-08-02T03:13:06.440Z,82.00
2017-08-02T03:16:09.842Z,81.60
2017-08-02T03:19:12.614Z,81.60
2017-08-02T03:22:15.251Z,82.20
2017-08-02T03:25:17.975Z,82.70
2017-08-02T03:28:21.388Z,82.10
2017-08-02T03:31:24.578Z,81.90
2017-08-02T03:34:27.361Z,83.60
2017-08-02T03:37:29.983Z,83.20
2017-08-02T03:40:32.725Z,83.80
2017-08-02T03:43:35.398Z,83.10
2017-08-02T03:46:38.170Z,83.00
2017-08-02T03:49:41.602Z,83.00
2017-08-02T03:52:44.364Z,82.90
2017-08-02T03:55:47.049Z,82.20
2017-08-02T03:58:49.875Z,83.00
2017-08-02T04:01:52.507Z,83.50
2017-08-02T04:04:55.295Z,83.80
2017-08-02T04:11:27.255Z,83.40
2017-08-02T04:14:30.795Z,83.70
2017-08-02T04:17:33.426Z,83.70
2017-08-02T04:20:36.143Z,83.40
2017-08-02T04:23:38.777Z,83.70
2017-08-02T04:26:41.495Z,82.90
2017-08-02T04:29:44.132Z,83.60
2017-08-02T04:32:46.866Z,83.80
2017-08-02T04:35:49.502Z,82.50
2017-08-02T04:38:52.215Z,83.60
2017-08-02T04:41:55.282Z,83.70
2017-08-02T04:44:58.802Z,85.40
2017-08-02T04:48:01.434Z,84.80
2017-08-02T04:51:04.165Z,85.00
2017-08-02T04:54:07.540Z,85.90
2017-08-02T04:57:11.073Z,86.70
2017-08-02T05:00:13.579Z,86.60
2017-08-02T05:03:16.330Z,86.40
2017-08-02T05:06:18.980Z,86.60
2017-08-02T05:09:22.388Z,86.90
2017-08-02T05:12:25.910Z,84.30
2017-08-02T05:15:28.669Z,84.20
2017-08-02T05:18:32.307Z,87.50
2017-08-02T05:21:34.935Z,87.50
2017-08-02T05:24:37.649Z,85.40
2017-08-02T05:27:40.276Z,83.10
2017-08-02T05:30:43.018Z,82.70
2017-08-02T05:33:45.674Z,83.20
2017-08-02T05:36:49.191Z,85.00
2017-08-02T05:39:51.987Z,85.00
2017-08-02T05:42:54.646Z,84.90
2017-08-02T05:45:57.494Z,85.30
2017-08-02T05:49:00.155Z,84.80
2017-08-02T05:52:02.931Z,85.20
2017-08-02T05:55:05.563Z,84.70
2017-08-02T05:58:09.128Z,84.80
2017-08-02T06:01:11.772Z,84.90
2017-08-02T06:04:14.562Z,84.20
2017-08-02T06:07:17.192Z,83.70
2017-08-02T06:10:19.902Z,83.20
2017-08-02T06:13:23.425Z,83.60
2017-08-02T06:16:26.070Z,83.50
2017-08-02T06:19:28.770Z,82.60
2017-08-02T06:22:32.836Z,82.00
2017-08-02T06:25:35.582Z,84.10
2017-08-02T06:28:38.229Z,82.10
2017-08-02T06:31:41.777Z,84.00
2017-08-02T06:34:44.443Z,84.00
2017-08-02T06:37:47.220Z,81.80
2017-08-02T06:40:49.859Z,81.50
2017-08-02T06:43:52.883Z,80.40
2017-08-02T06:46:55.527Z,80.10
2017-08-02T06:49:58.191Z,80.90
2017-08-02T06:53:00.963Z,82.00
2017-08-02T06:56:03.617Z,81.40
2017-08-02T06:59:06.402Z,81.60
2017-08-02T07:02:09.083Z,79.10
2017-08-02T07:05:11.865Z,79.00
2017-08-02T07:08:14.509Z,78.80
2017-08-02T07:11:18.056Z,80.10
2017-08-02T07:14:20.323Z,80.00
2017-08-02T07:17:22.965Z,78.50
2017-08-02T07:20:26.482Z,77.90
2017-08-02T07:23:29.898Z,78.70
2017-08-02T07:26:32.538Z,78.60
2017-08-02T07:29:35.239Z,78.60
2017-08-02T07:32:38.672Z,77.00
2017-08-02T07:35:41.339Z,77.00
2017-08-02T07:38:44.013Z,76.30
2017-08-02T07:41:46.700Z,74.70
2017-08-02T07:44:49.337Z,75.00
2017-08-02T07:47:52.044Z,75.40
2017-08-02T07:50:55.104Z,77.60
2017-08-02T07:53:57.927Z,76.20
2017-08-02T07:57:00.579Z,74.40
2017-08-02T08:00:03.965Z,75.20
2017-08-02T08:03:06.460Z,75.10
2017-08-02T08:06:09.171Z,77.00
2017-08-02T08:09:11.845Z,74.20
2017-08-02T08:12:14.480Z,75.10
2017-08-02T08:15:17.211Z,74.40
2017-08-02T08:18:19.565Z,75.00
2017-08-02T08:21:23.085Z,73.50
2017-08-02T08:24:25.742Z,73.50
2017-08-02T08:27:29.972Z,73.30
2017-08-02T08:30:33.000Z,73.00
2017-08-02T08:33:36.734Z,74.40
2017-08-02T08:36:39.383Z,73.80
2017-08-02T08:39:42.128Z,74.10
2017-08-02T08:42:44.808Z,73.50
2017-08-02T08:45:47.428Z,73.00
2017-08-02T08:48:50.289Z,71.50
2017-08-02T08:51:52.933Z,73.50
2017-08-02T08:54:55.546Z,73.50
2017-08-02T08:57:58.180Z,73.30
2017-08-02T09:01:00.826Z,71.80
2017-08-02T09:04:03.478Z,73.70
2017-08-02T09:07:06.176Z,74.60
2017-08-02T09:10:08.847Z,74.40
2017-08-02T09:13:11.498Z,72.70
2017-08-02T09:16:14.209Z,72.60
2017-08-02T09:19:16.817Z,71.00
2017-08-02T09:22:19.558Z,71.50
2017-08-02T09:25:22.181Z,72.20
2017-08-02T09:28:24.912Z,72.10
2017-08-02T09:31:28.332Z,72.20
2017-08-02T09:34:30.908Z,72.00
2017-08-02T09:37:33.268Z,70.60
2017-08-02T09:40:35.674Z,69.40
2017-08-02T09:43:38.056Z,68.50
2017-08-02T09:46:41.323Z,66.40
2017-08-02T09:49:43.706Z,66.10
2017-08-02T09:52:46.264Z,68.10
2017-08-02T09:55:54.619Z,67.40
2017-08-02T09:58:57.764Z,66.10
2017-08-02T10:02:00.242Z,66.10
2017-08-02T10:05:02.675Z,64.40
2017-08-02T10:08:05.194Z,64.30
2017-08-02T10:11:07.569Z,65.40
2017-08-02T10:14:10.169Z,65.40
2017-08-02T10:17:12.533Z,65.20
2017-08-02T10:20:15.095Z,66.50
2017-08-02T10:23:19.433Z,65.50
2017-08-02T10:26:22.317Z,64.60
2017-08-02T10:29:25.576Z,65.90
2017-08-02T10:32:28.112Z,65.90
2017-08-02T10:35:31.129Z,65.20
2017-08-02T10:38:33.480Z,65.90
2017-08-02T10:41:39.664Z,65.60
2017-08-02T10:44:42.124Z,66.50
2017-08-02T10:47:45.384Z,64.90
2017-08-02T10:50:48.369Z,64.80
2017-08-02T10:53:50.841Z,64.70
2017-08-02T10:56:53.226Z,63.40
2017-08-02T10:59:55.701Z,63.70
2017-08-02T11:02:58.114Z,64.50
2017-08-02T11:06:01.354Z,62.90
2017-08-02T11:09:03.844Z,62.80
2017-08-02T11:12:06.225Z,64.30
2017-08-02T11:15:08.688Z,63.50
2017-08-02T11:18:11.047Z,63.60
2017-08-02T11:21:13.424Z,61.90
2017-08-02T11:24:15.787Z,62.50
2017-08-02T11:27:17.965Z,63.50
2017-08-02T11:30:20.448Z,61.40
2017-08-02T11:33:22.803Z,61.70
2017-08-02T11:36:25.192Z,61.70
2017-08-02T11:39:27.554Z,62.00
2017-08-02T11:42:30.196Z,61.40
2017-08-02T11:45:33.438Z,60.00
2017-08-02T11:48:35.844Z,59.90
2017-08-02T11:51:38.291Z,58.20
2017-08-02T11:54:40.664Z,58.30
2017-08-02T11:57:43.571Z,57.60
2017-08-02T12:00:45.933Z,57.90
2017-08-02T12:03:48.407Z,57.50
2017-08-02T12:06:50.756Z,56.70
2017-08-02T12:09:53.261Z,57.30
2017-08-02T12:12:55.619Z,58.10
2017-08-02T12:15:58.113Z,56.20
2017-08-02T12:19:00.481Z,56.70
2017-08-02T12:22:02.950Z,58.00
2017-08-02T12:25:05.309Z,58.30
2017-08-02T12:28:07.813Z,57.90
2017-08-02T12:31:10.173Z,57.10
2017-08-02T12:34:12.654Z,56.20
2017-08-02T12:37:15.010Z,56.90
2017-08-02T12:40:17.538Z,56.60
2017-08-02T12:43:20.690Z,55.30
2017-08-02T12:46:23.168Z,54.80
2017-08-02T12:49:25.558Z,55.80
2017-08-02T12:52:28.019Z,56.40
2017-08-02T12:55:30.602Z,55.80
2017-08-02T12:58:32.961Z,55.30
2017-08-02T13:01:35.456Z,56.10
2017-08-02T13:04:37.812Z,53.80
2017-08-02T13:07:40.294Z,54.80
2017-08-02T13:10:42.937Z,53.40
2017-08-02T13:13:45.446Z,53.70
2017-08-02T13:16:47.939Z,53.30
2017-08-02T13:19:50.311Z,53.80
2017-08-02T13:22:52.794Z,53.80
2017-08-02T13:25:55.276Z,54.00
2017-08-02T13:28:58.152Z,53.10
2017-08-02T13:32:00.520Z,52.60
2017-08-02T13:35:02.995Z,53.90
2017-08-02T13:38:05.375Z,54.30
2017-08-02T13:41:07.834Z,52.90
2017-08-02T13:44:10.219Z,51.30
2017-08-02T13:47:12.687Z,51.60
2017-08-02T13:50:15.047Z,51.60
2017-08-02T13:53:17.576Z,53.00
2017-08-02T13:56:26.067Z,52.00
2017-08-02T13:59:28.479Z,50.30
2017-08-02T14:02:31.879Z,50.60
2017-08-02T14:05:34.990Z,51.90
2017-08-02T14:08:37.516Z,51.70
2017-08-02T14:11:40.096Z,49.60
2017-08-02T14:14:42.521Z,51.30
2017-08-02T14:17:45.034Z,51.10
2017-08-02T14:20:47.520Z,52.30
2017-08-02T14:23:49.974Z,51.80
2017-08-02T14:26:52.358Z,52.10
2017-08-02T14:29:54.840Z,51.40
2017-08-02T14:32:57.210Z,50.00
2017-08-02T14:36:00.818Z,50.80
2017-08-02T14:39:03.191Z,50.80
2017-08-02T14:42:05.566Z,50.00
2017-08-02T14:45:08.123Z,51.00
2017-08-02T14:48:10.476Z,51.20
2017-08-02T14:51:12.869Z,51.50
2017-08-02T14:54:15.246Z,51.20
2017-08-02T14:57:17.743Z,51.40
2017-08-02T15:00:21.007Z,51.20
2017-08-02T15:03:23.358Z,49.60
2017-08-02T15:06:26.595Z,50.80
2017-08-02T15:09:28.968Z,50.80
2017-08-02T15:12:31.350Z,51.40
2017-08-02T15:15:33.704Z,52.10
2017-08-02T15:18:36.198Z,52.20
2017-08-02T15:21:38.717Z,52.30
2017-08-02T15:24:41.074Z,51.30
2017-08-02T15:27:43.529Z,52.80
2017-08-02T15:30:45.870Z,52.20
2017-08-02T15:33:48.379Z,51.80
2017-08-02T15:36:50.770Z,51.20
2017-08-02T15:39:53.208Z,51.70
2017-08-02T15:42:55.583Z,52.40
2017-08-02T15:45:58.058Z,53.00
2017-08-02T15:49:00.419Z,52.70
2017-08-02T15:52:02.798Z,52.90
2017-08-02T15:55:05.199Z,53.40
2017-08-02T15:58:07.581Z,53.00
2017-08-02T16:01:10.044Z,53.20
2017-08-02T16:04:12.525Z,53.60
2017-08-02T16:07:14.713Z,53.60
2017-08-02T16:10:17.164Z,53.50
2017-08-02T16:13:20.194Z,53.30
2017-08-02T16:16:23.434Z,53.10
2017-08-02T16:19:25.795Z,53.00
2017-08-02T16:22:28.162Z,54.20
2017-08-02T16:25:30.559Z,54.30
2017-08-02T16:28:32.948Z,54.30
2017-08-02T16:31:35.420Z,54.80
2017-08-02T16:34:37.784Z,54.70
2017-08-02T16:37:40.139Z,55.00
2017-08-02T16:40:42.503Z,54.90
2017-08-02T16:43:44.856Z,55.50
2017-08-02T16:46:48.085Z,55.20
2017-08-02T16:49:50.935Z,55.20
2017-08-02T16:52:54.115Z,56.00
2017-08-02T16:55:56.548Z,55.90
2017-08-02T16:58:58.915Z,55.40
2017-08-02T17:02:02.330Z,55.60
2017-08-02T17:05:04.683Z,55.60
2017-08-02T17:08:07.064Z,55.40
2017-08-02T17:11:09.444Z,55.70
2017-08-02T17:14:11.810Z,55.60
2017-08-02T17:17:14.183Z,56.00
2017-08-02T17:20:16.559Z,56.00
2017-08-02T17:23:18.905Z,55.60
2017-08-02T17:26:21.331Z,55.70
2017-08-02T17:29:23.682Z,55.20
2017-08-02T17:32:26.171Z,55.80
2017-08-02T17:35:28.530Z,55.90
2017-08-02T17:38:30.911Z,56.50
2017-08-02T17:41:33.267Z,56.90
2017-08-02T17:44:35.636Z,57.00
2017-08-02T17:47:38.036Z,57.70
2017-08-02T17:50:40.387Z,57.20
2017-08-02T17:53:42.758Z,57.50
2017-08-02T17:56:45.268Z,58.10
2017-08-02T17:59:48.414Z,59.20
2017-08-02T18:02:50.828Z,59.20
2017-08-02T18:05:53.184Z,59.20
2017-08-02T18:08:55.472Z,58.80
2017-08-02T18:11:57.887Z,59.60
2017-08-02T18:15:00.320Z,60.20
2017-08-02T18:18:02.658Z,61.60
2017-08-02T18:21:05.607Z,60.70
2017-08-02T18:24:07.983Z,62.20
2017-08-02T18:27:10.434Z,61.20
2017-08-02T18:30:12.790Z,60.50
2017-08-02T18:33:15.163Z,61.00
2017-08-02T18:36:17.516Z,61.00
2017-08-02T18:39:19.925Z,61.10
2017-08-02T18:42:22.309Z,62.50
2017-08-02T18:45:24.705Z,62.90
2017-08-02T18:48:27.202Z,63.60
2017-08-02T18:51:29.587Z,62.80
2017-08-02T18:54:32.003Z,64.10
2017-08-02T18:57:34.482Z,64.60
2017-08-02T19:00:37.123Z,64.40
2017-08-02T19:03:40.542Z,65.40
2017-08-02T19:06:43.994Z,65.60
2017-08-02T19:09:46.792Z,65.60
2017-08-02T19:12:49.495Z,65.60
2017-08-02T19:15:53.434Z,66.20
2017-08-02T19:18:56.768Z,66.20
2017-08-02T19:21:59.422Z,66.30
2017-08-02T19:25:02.116Z,66.90
2017-08-02T19:28:04.808Z,67.90
2017-08-02T19:31:07.457Z,68.20
2017-08-02T19:34:12.131Z,69.60
2017-08-02T19:37:14.983Z,68.70
2017-08-02T19:40:17.738Z,68.50
2017-08-02T19:43:20.521Z,68.50
2017-08-02T19:46:23.187Z,68.10
2017-08-02T19:49:26.185Z,68.70
2017-08-02T19:52:28.856Z,69.60
2017-08-02T19:55:31.515Z,70.00
2017-08-02T19:58:34.317Z,69.80
2017-08-02T20:01:37.702Z,70.20
2017-08-02T20:04:40.581Z,70.30
2017-08-02T20:07:43.205Z,70.90
2017-08-02T20:10:45.972Z,70.70
2017-08-02T20:13:48.660Z,70.50
2017-08-02T20:16:51.633Z,70.30
2017-08-02T20:19:54.498Z,70.10
2017-08-02T20:22:57.144Z,69.90
2017-08-02T20:29:15.497Z,71.60
2017-08-02T20:32:19.424Z,72.70
2017-08-02T20:35:23.942Z,72.70
2017-08-02T20:38:27.236Z,72.70
2017-08-02T20:41:30.274Z,72.20
2017-08-02T20:44:33.234Z,72.80
2017-08-02T20:47:36.070Z,72.30
2017-08-02T20:54:08.289Z,72.30
2017-08-02T20:57:10.918Z,73.80
2017-08-02T21:00:14.445Z,74.20
2017-08-02T21:03:16.898Z,74.10
2017-08-02T21:06:19.547Z,73.60
2017-08-02T21:09:22.279Z,73.80
2017-08-02T21:12:24.939Z,73.60
2017-08-02T21:15:27.651Z,73.60
2017-08-02T21:18:30.377Z,73.60
2017-08-02T21:21:33.103Z,74.40
2017-08-02T21:24:35.766Z,74.40
2017-08-02T21:27:38.471Z,74.30
2017-08-02T21:30:41.244Z,73.90
2017-08-02T21:33:43.910Z,73.70
2017-08-02T21:36:46.588Z,73.60
2017-08-02T21:39:50.120Z,74.30
2017-08-02T21:42:52.756Z,74.30
2017-08-02T21:45:56.324Z,74.90
2017-08-02T21:48:58.755Z,74.80
2017-08-02T21:52:01.603Z,75.20
2017-08-02T21:55:04.241Z,74.50
2017-08-02T21:58:06.891Z,74.80
2017-08-02T22:01:10.317Z,74.80
2017-08-02T22:04:12.806Z,74.90
2017-08-02T22:07:15.444Z,75.80
2017-08-02T22:10:18.967Z,75.50
2017-08-02T22:13:21.943Z,75.40
2017-08-02T22:16:24.595Z,75.30
2017-08-02T22:19:27.240Z,75.70
2017-08-02T22:22:29.998Z,75.40
2017-08-02T22:25:32.637Z,75.00
2017-08-02T22:28:35.301Z,75.50
2017-08-02T22:31:38.052Z,75.60
2017-08-02T22:34:41.526Z,76.10
2017-08-02T22:37:44.156Z,76.90
2017-08-02T22:40:46.902Z,76.10
2017-08-02T22:43:49.536Z,76.30
2017-08-02T22:46:52.205Z,76.10
2017-08-02T22:49:54.850Z,76.40
2017-08-02T22:52:57.650Z,76.00
2017-08-02T22:56:00.283Z,76.50
2017-08-02T22:59:02.956Z,76.70
2017-08-02T23:02:06.388Z,76.90
2017-08-02T23:05:09.084Z,76.80
2017-08-02T23:08:11.720Z,75.80
2017-08-02T23:11:15.257Z,75.40
2017-08-02T23:14:17.951Z,75.30
2017-08-02T23:17:20.574Z,75.50
2017-08-02T23:20:23.998Z,75.70
2017-08-02T23:23:26.678Z,75.70
2017-08-02T23:26:29.347Z,75.90
2017-08-02T23:29:32.754Z,76.90
2017-08-02T23:32:35.506Z,76.80
2017-08-02T23:35:38.919Z,77.60
2017-08-02T23:38:42.355Z,77.00
2017-08-02T23:41:45.014Z,77.00
2017-08-02T23:44:48.143Z,77.20
2017-08-02T23:47:50.903Z,77.30
2017-08-02T23:50:53.550Z,78.00
2017-08-02T23:53:57.084Z,78.50
2017-08-02T23:56:59.710Z,77.80
